Observation data for Goodlett on 07/15/2019      Previous  Date  Next       Current Mesonet Observations  Soil Data  Daily Summary Page  Observations in Plain Language
KGDS 150500Z 12004KT 26/19 A2998 RMK A01 T02620188  RH  067%=      5-min Rain = 0
KGDS 150505Z 12004KT 26/19 A2998 RMK A01 T02600187  RH  068%=      5-min Rain = 0
KGDS 150510Z 12004KT 26/19 A2998 RMK A01 T02580187  RH  068%=      5-min Rain = 0
KGDS 150515Z 11004KT 26/19 A2998 RMK A01 T02570187  RH  069%=      5-min Rain = 0
KGDS 150520Z 12003KT 26/19 A2998 RMK A01 T02570187  RH  069%=      5-min Rain = 0
KGDS 150525Z 12004KT 26/19 A2998 RMK A01 T02560187  RH  069%=      5-min Rain = 0
KGDS 150530Z 12004KT 26/19 A2998 RMK A01 T02550187  RH  069%=      5-min Rain = 0
KGDS 150535Z 12004KT 25/19 A2998 RMK A01 T02540186  RH  070%=      5-min Rain = 0
KGDS 150540Z 12005KT 25/19 A2998 RMK A01 T02540186  RH  070%=      5-min Rain = 0
KGDS 150545Z 12005KT 25/19 A2998 RMK A01 T02530187  RH  070%=      5-min Rain = 0
KGDS 150550Z 13004KT 25/19 A2998 RMK A01 T02520186  RH  070%=      5-min Rain = 0
KGDS 150555Z 13004KT 25/19 A2998 RMK A01 T02520186  RH  070%=      5-min Rain = 0
KGDS 150600Z 13004KT 25/19 A2998 RMK A01 T02520186  RH  071%=      5-min Rain = 0
KGDS 150605Z 13005KT 25/19 A2998 RMK A01 T02510186  RH  071%=      5-min Rain = 0
KGDS 150610Z 13006KT 25/19 A2998 RMK A01 T02530187  RH  070%=      5-min Rain = 0
KGDS 150615Z 13005KT 25/19 A2998 RMK A01 T02540186  RH  070%=      5-min Rain = 0
KGDS 150620Z 13005KT 25/19 A2998 RMK A01 T02510186  RH  071%=      5-min Rain = 0
KGDS 150625Z 13005KT 25/19 A2998 RMK A01 T02500186  RH  071%=      5-min Rain = 0
KGDS 150630Z 13006KT 25/19 A2998 RMK A01 T02500186  RH  071%=      5-min Rain = 0
KGDS 150635Z 12006KT 25/19 A2998 RMK A01 T02500186  RH  071%=      5-min Rain = 0
KGDS 150640Z 12006KT 25/19 A2998 RMK A01 T02470186  RH  072%=      5-min Rain = 0
KGDS 150645Z 12006KT 25/19 A2998 RMK A01 T02460186  RH  073%=      5-min Rain = 0
KGDS 150650Z 12007KT 25/19 A2998 RMK A01 T02450186  RH  073%=      5-min Rain = 0
KGDS 150655Z 12006KT 25/19 A2998 RMK A01 T02450186  RH  073%=      5-min Rain = 0
KGDS 150700Z 12005KT 24/19 A2998 RMK A01 T02430186  RH  074%=      5-min Rain = 0
KGDS 150705Z 12005KT 24/19 A2998 RMK A01 T02420186  RH  075%=      5-min Rain = 0
KGDS 150710Z 13005KT 24/19 A2998 RMK A01 T02410186  RH  075%=      5-min Rain = 0
KGDS 150715Z 12004KT 24/19 A2998 RMK A01 T02400185  RH  075%=      5-min Rain = 0
KGDS 150720Z 12004KT 24/19 A2998 RMK A01 T02390186  RH  076%=      5-min Rain = 0
KGDS 150725Z 12004KT 24/19 A2998 RMK A01 T02370185  RH  077%=      5-min Rain = 0
KGDS 150730Z 13003KT 24/19 A2998 RMK A01 T02350185  RH  077%=      5-min Rain = 0
KGDS 150735Z 15003KT 23/18 A2998 RMK A01 T02340184  RH  078%=      5-min Rain = 0
KGDS 150740Z 15003KT 23/18 A2998 RMK A01 T02340184  RH  077%=      5-min Rain = 0
KGDS 150745Z 15003KT 23/18 A2998 RMK A01 T02340184  RH  078%=      5-min Rain = 0
KGDS 150750Z 15003KT 23/18 A2998 RMK A01 T02340184  RH  078%=      5-min Rain = 0
KGDS 150755Z 14004KT 23/18 A2998 RMK A01 T02340184  RH  078%=      5-min Rain = 0
KGDS 150800Z 14004KT 23/18 A2998 RMK A01 T02320184  RH  079%=      5-min Rain = 0
KGDS 150805Z 15003KT 23/18 A2998 RMK A01 T02310184  RH  079%=      5-min Rain = 0
KGDS 150810Z 14004KT 23/18 A2998 RMK A01 T02310184  RH  079%=      5-min Rain = 0
KGDS 150815Z 14004KT 23/18 A2998 RMK A01 T02300184  RH  080%=      5-min Rain = 0
KGDS 150820Z 15003KT 23/18 A2998 RMK A01 T02290184  RH  080%=      5-min Rain = 0
KGDS 150825Z 16003KT 23/18 A2998 RMK A01 T02300184  RH  079%=      5-min Rain = 0
KGDS 150830Z 15003KT 23/18 A2998 RMK A01 T02300184  RH  079%=      5-min Rain = 0
KGDS 150835Z 15003KT 23/18 A2998 RMK A01 T02300184  RH  079%=      5-min Rain = 0
KGDS 150840Z 16003KT 23/19 A2998 RMK A01 T02300185  RH  080%=      5-min Rain = 0
KGDS 150845Z 16003KT 23/19 A2998 RMK A01 T02310185  RH  080%=      5-min Rain = 0
KGDS 150850Z 16003KT 23/19 A2998 RMK A01 T02320185  RH  079%=      5-min Rain = 0
KGDS 150855Z 16003KT 23/19 A2998 RMK A01 T02310185  RH  079%=      5-min Rain = 0
KGDS 150900Z 17002KT 23/19 A2998 RMK A01 T02310185  RH  080%=      5-min Rain = 0
KGDS 150905Z 16002KT 23/19 A2998 RMK A01 T02320185  RH  079%=      5-min Rain = 0
KGDS 150910Z 16003KT 23/19 A2998 RMK A01 T02310186  RH  080%=      5-min Rain = 0
KGDS 150915Z 18003KT 23/19 A2998 RMK A01 T02310185  RH  080%=      5-min Rain = 0
KGDS 150920Z 18002KT 23/18 A2998 RMK A01 T02300184  RH  079%=      5-min Rain = 0
KGDS 150925Z 19001KT 23/18 A2998 RMK A01 T02300184  RH  080%=      5-min Rain = 0
KGDS 150930Z 19001KT 23/18 A2998 RMK A01 T02290184  RH  080%=      5-min Rain = 0
KGDS 150935Z 18001KT 23/19 A2999 RMK A01 T02290185  RH  080%=      5-min Rain = 0
KGDS 150940Z 00000KT 23/19 A2998 RMK A01 T02280185  RH  081%=      5-min Rain = 0
KGDS 150945Z 17001KT 23/19 A2998 RMK A01 T02270185  RH  081%=      5-min Rain = 0
KGDS 150950Z 17002KT 23/19 A2998 RMK A01 T02280185  RH  081%=      5-min Rain = 0
KGDS 150955Z 17002KT 23/19 A2998 RMK A01 T02270185  RH  081%=      5-min Rain = 0
KGDS 151000Z 17002KT 23/19 A2998 RMK A01 T02280186  RH  081%=      5-min Rain = 0
KGDS 151005Z 17002KT 23/19 A2998 RMK A01 T02270185  RH  081%=      5-min Rain = 0
KGDS 151010Z 16002KT 23/19 A2998 RMK A01 T02260185  RH  082%=      5-min Rain = 0
KGDS 151015Z 16002KT 23/19 A2998 RMK A01 T02250185  RH  082%=      5-min Rain = 0
KGDS 151020Z 15001KT 22/18 A2998 RMK A01 T02240184  RH  082%=      5-min Rain = 0
KGDS 151025Z 00000KT 22/19 A2998 RMK A01 T02240185  RH  083%=      5-min Rain = 0
KGDS 151030Z 00000KT 22/18 A2998 RMK A01 T02220183  RH  083%=      5-min Rain = 0
KGDS 151035Z 00000KT 22/18 A2998 RMK A01 T02190182  RH  084%=      5-min Rain = 0
KGDS 151040Z 00000KT 22/18 A2999 RMK A01 T02150181  RH  085%=      5-min Rain = 0
KGDS 151045Z 00000KT 22/18 A2999 RMK A01 T02150182  RH  086%=      5-min Rain = 0
KGDS 151050Z 04001KT 21/18 A2999 RMK A01 T02140181  RH  086%=      5-min Rain = 0
KGDS 151055Z 04003KT 21/18 A2999 RMK A01 T02110181  RH  087%=      5-min Rain = 0
KGDS 151100Z 03003KT 21/18 A2999 RMK A01 T02100181  RH  088%=      5-min Rain = 0
KGDS 151105Z 03003KT 21/18 A2999 RMK A01 T02090180  RH  088%=      5-min Rain = 0
KGDS 151110Z 04002KT 21/18 A2999 RMK A01 T02080180  RH  088%=      5-min Rain = 0
KGDS 151115Z 05002KT 21/18 A2999 RMK A01 T02080180  RH  088%=      5-min Rain = 0
KGDS 151120Z 05002KT 21/18 A2999 RMK A01 T02080179  RH  088%=      5-min Rain = 0
KGDS 151125Z 05002KT 21/18 A2999 RMK A01 T02090179  RH  088%=      5-min Rain = 0
KGDS 151130Z 05002KT 21/18 A2999 RMK A01 T02100180  RH  088%=      5-min Rain = 0
KGDS 151135Z 05002KT 21/18 A2999 RMK A01 T02100181  RH  088%=      5-min Rain = 0
KGDS 151140Z 04002KT 21/18 A2999 RMK A01 T02100181  RH  088%=      5-min Rain = 0
KGDS 151145Z 05002KT 21/18 A2999 RMK A01 T02110181  RH  088%=      5-min Rain = 0
KGDS 151150Z 05002KT 21/18 A2999 RMK A01 T02100181  RH  088%=      5-min Rain = 0
KGDS 151155Z 05003KT 21/18 A2999 RMK A01 T02100181  RH  088%=      5-min Rain = 0
KGDS 151200Z 05003KT 21/18 A2999 RMK A01 T02100181  RH  088%=      5-min Rain = 0
KGDS 151205Z 03002KT 21/18 A2999 RMK A01 T02110182  RH  088%=      5-min Rain = 0
KGDS 151210Z 00001KT 21/18 A2999 RMK A01 T02130184  RH  088%=      5-min Rain = 0
KGDS 151215Z 35001KT 22/19 A30 RMK A01 T02160186  RH  087%=      5-min Rain = 0
KGDS 151220Z 33001KT 22/19 A30 RMK A01 T02190187  RH  087%=      5-min Rain = 0
KGDS 151225Z 32000KT 22/19 A30 RMK A01 T02230188  RH  085%=      5-min Rain = 0
KGDS 151230Z 00000KT 23/19 A30 RMK A01 T02270189  RH  084%=      5-min Rain = 0
KGDS 151235Z 29000KT 23/19 A30 RMK A01 T02300189  RH  082%=      5-min Rain = 0
KGDS 151240Z 27001KT 23/19 A30 RMK A01 T02340190  RH  081%=      5-min Rain = 0
KGDS 151245Z 27001KT 24/19 A30 RMK A01 T02360191  RH  080%=      5-min Rain = 0
KGDS 151250Z 25001KT 24/19 A30 RMK A01 T02390192  RH  080%=      5-min Rain = 0
KGDS 151255Z 25002KT 24/19 A3001 RMK A01 T02410193  RH  079%=      5-min Rain = 0
KGDS 151300Z 24002KT 24/19 A3001 RMK A01 T02430193  RH  078%=      5-min Rain = 0
KGDS 151305Z 21003KT 24/19 A30 RMK A01 T02440192  RH  077%=      5-min Rain = 0
KGDS 151310Z 20004KT 25/19 A30 RMK A01 T02460192  RH  076%=      5-min Rain = 0
KGDS 151315Z 19004KT 25/19 A30 RMK A01 T02480192  RH  075%=      5-min Rain = 0
KGDS 151320Z 17004KT 25/19 A30 RMK A01 T02510193  RH  074%=      5-min Rain = 0
KGDS 151325Z 19004KT 25/19 A30 RMK A01 T02520193  RH  073%=      5-min Rain = 0
KGDS 151330Z 19005KT 26/19 A30 RMK A01 T02550193  RH  072%=      5-min Rain = 0
KGDS 151335Z 17005KT 26/19 A30 RMK A01 T02560193  RH  072%=      5-min Rain = 0
KGDS 151340Z 19005KT 26/19 A30 RMK A01 T02580193  RH  071%=      5-min Rain = 0
KGDS 151345Z 20005KT 26/19 A30 RMK A01 T02610194  RH  070%=      5-min Rain = 0
KGDS 151350Z 20006KT 26/19 A30 RMK A01 T02600193  RH  071%=      5-min Rain = 0
KGDS 151355Z 19006KT 26/19 A30 RMK A01 T02600194  RH  071%=      5-min Rain = 0
KGDS 151400Z 21006KT 26/19 A30 RMK A01 T02610194  RH  070%=      5-min Rain = 0
KGDS 151405Z 21005KT 27/20 A30 RMK A01 T02660195  RH  069%=      5-min Rain = 0
KGDS 151410Z 21006KT 27/20 A30 RMK A01 T02690195  RH  068%=      5-min Rain = 0
KGDS 151415Z 21006KT 27/20 A30 RMK A01 T02720196  RH  067%=      5-min Rain = 0
KGDS 151420Z 22007KT 28/20 A30 RMK A01 T02750196  RH  066%=      5-min Rain = 0
KGDS 151425Z 22007KT 27/20 A30 RMK A01 T02740195  RH  066%=      5-min Rain = 0
KGDS 151430Z 21007KT 28/20 A30 RMK A01 T02770195  RH  065%=      5-min Rain = 0
KGDS 151435Z 22007KT 28/20 A30 RMK A01 T02770195  RH  064%=      5-min Rain = 0
KGDS 151440Z 24006KT 28/20 A30 RMK A01 T02800196  RH  064%=      5-min Rain = 0
KGDS 151445Z 22006KT 28/20 A30 RMK A01 T02810195  RH  063%=      5-min Rain = 0
KGDS 151450Z 24006KT 28/19 A2999 RMK A01 T02830194  RH  062%=      5-min Rain = 0
KGDS 151455Z 21007KT 29/19 A2999 RMK A01 T02850194  RH  061%=      5-min Rain = 0
KGDS 151500Z 22006KT 29/19 A2999 RMK A01 T02870193  RH  060%=      5-min Rain = 0
KGDS 151505Z 22007KT 29/19 A2999 RMK A01 T02900193  RH  059%=      5-min Rain = 0
KGDS 151510Z 24006KT 29/19 A2999 RMK A01 T02920193  RH  058%=      5-min Rain = 0
KGDS 151515Z 22006KT 29/19 A2999 RMK A01 T02940193  RH  058%=      5-min Rain = 0
KGDS 151520Z 21005KT 30/19 A2998 RMK A01 T02980193  RH  057%=      5-min Rain = 0
KGDS 151525Z 21005KT 30/19 A2998 RMK A01 T02960192  RH  057%=      5-min Rain = 0
KGDS 151530Z 20006KT 30/19 A2998 RMK A01 T02960192  RH  057%=      5-min Rain = 0
KGDS 151535Z 21004KT 30/19 A2998 RMK A01 T02980190  RH  055%=      5-min Rain = 0
KGDS 151540Z 18004KT 30/19 A2998 RMK A01 T03010193  RH  055%=      5-min Rain = 0
KGDS 151545Z 21005KT 31/19 A2998 RMK A01 T03050193  RH  054%=      5-min Rain = 0
KGDS 151550Z 22002KT 30/19 A2998 RMK A01 T03040191  RH  054%=      5-min Rain = 0
KGDS 151555Z 18005KT 31/19 A2998 RMK A01 T03100193  RH  053%=      5-min Rain = 0
KGDS 151600Z 22006KT 31/19 A2998 RMK A01 T03080191  RH  053%=      5-min Rain = 0
KGDS 151605Z 20004G10KT 31/19 A2998 RMK A01 T03110193  RH  052%=      5-min Rain = 0
KGDS 151610Z 22004KT 31/19 A2998 RMK A01 T03090191  RH  052%=      5-min Rain = 0
KGDS 151615Z 21003G10KT 31/19 A2997 RMK A01 T03120194  RH  052%=      5-min Rain = 0
KGDS 151620Z 20006G11KT 32/20 A2997 RMK A01 T03160195  RH  052%=      5-min Rain = 0
KGDS 151625Z 23002KT 32/20 A2997 RMK A01 T03180196  RH  051%=      5-min Rain = 0
KGDS 151630Z 22002KT 32/20 A2997 RMK A01 T03210195  RH  050%=      5-min Rain = 0
KGDS 151635Z 21003KT 32/20 A2997 RMK A01 T03240197  RH  050%=      5-min Rain = 0
KGDS 151640Z 23005G12KT 32/20 A2997 RMK A01 T03240196  RH  050%=      5-min Rain = 0
KGDS 151645Z 19003KT 32/20 A2997 RMK A01 T03220197  RH  051%=      5-min Rain = 0
KGDS 151650Z 26004G9KT 33/20 A2997 RMK A01 T03270196  RH  049%=      5-min Rain = 0
KGDS 151655Z 24006KT 32/20 A2997 RMK A01 T03230195  RH  049%=      5-min Rain = 0
KGDS 151700Z 22003KT 32/19 A2996 RMK A01 T03170193  RH  051%=      5-min Rain = 0
KGDS 151705Z 25005KT 32/20 A2996 RMK A01 T03240195  RH  049%=      5-min Rain = 0
KGDS 151710Z 25005KT 32/19 A2996 RMK A01 T03220193  RH  049%=      5-min Rain = 0
KGDS 151715Z 30004G9KT 33/19 A2996 RMK A01 T03290194  RH  048%=      5-min Rain = 0
KGDS 151720Z 31003KT 33/19 A2996 RMK A01 T03260193  RH  048%=      5-min Rain = 0
KGDS 151725Z 22002KT 33/19 A2996 RMK A01 T03330193  RH  046%=      5-min Rain = 0
KGDS 151730Z 18006KT 34/20 A2996 RMK A01 T03350195  RH  046%=      5-min Rain = 0
KGDS 151735Z 19004KT 33/19 A2996 RMK A01 T03300193  RH  047%=      5-min Rain = 0
KGDS 151740Z 19002KT 34/19 A2996 RMK A01 T03350194  RH  046%=      5-min Rain = 0
KGDS 151745Z 27000KT 34/19 A2996 RMK A01 T03420191  RH  043%=      5-min Rain = 0
KGDS 151750Z 24002G8KT 34/19 A2996 RMK A01 T03410191  RH  044%=      5-min Rain = 0
KGDS 151755Z 24006KT 33/19 A2995 RMK A01 T03320190  RH  046%=      5-min Rain = 0
KGDS 151800Z 23001KT 33/19 A2995 RMK A01 T03300190  RH  046%=      5-min Rain = 0
KGDS 151805Z 29001KT 34/19 A2995 RMK A01 T03410193  RH  044%=      5-min Rain = 0
KGDS 151810Z 28002KT 35/19 A2995 RMK A01 T03480189  RH  042%=      5-min Rain = 0
KGDS 151815Z 29004KT 34/19 A2994 RMK A01 T03420186  RH  042%=      5-min Rain = 0
KGDS 151820Z 32003KT 34/19 A2994 RMK A01 T03420185  RH  042%=      5-min Rain = 0
KGDS 151825Z 34001KT 35/18 A2994 RMK A01 T03460183  RH  040%=      5-min Rain = 0
KGDS 151830Z 09002KT 34/19 A2994 RMK A01 T03430188  RH  042%=      5-min Rain = 0
KGDS 151835Z 13003KT 34/19 A2994 RMK A01 T03400185  RH  042%=      5-min Rain = 0
KGDS 151840Z 20005KT 34/18 A2994 RMK A01 T03380182  RH  042%=      5-min Rain = 0
KGDS 151845Z 18004KT 35/18 A2993 RMK A01 T03460183  RH  040%=      5-min Rain = 0
KGDS 151850Z 16003KT 35/18 A2993 RMK A01 T03470182  RH  040%=      5-min Rain = 0
KGDS 151855Z 11003KT 35/18 A2993 RMK A01 T03480183  RH  040%=      5-min Rain = 0
KGDS 151900Z 22002KT 35/18 A2993 RMK A01 T03500180  RH  039%=      5-min Rain = 0
KGDS 151905Z 26002KT 35/18 A2993 RMK A01 T03510181  RH  039%=      5-min Rain = 0
KGDS 151910Z 33002KT 35/18 A2993 RMK A01 T03510177  RH  038%=      5-min Rain = 0
KGDS 151915Z 35002KT 36/18 A2993 RMK A01 T03550177  RH  037%=      5-min Rain = 0
KGDS 151920Z 29003KT 36/18 A2993 RMK A01 T03610180  RH  037%=      5-min Rain = 0
KGDS 151925Z 31003KT 35/18 A2992 RMK A01 T03540179  RH  037%=      5-min Rain = 0
KGDS 151930Z 31001KT 35/18 A2992 RMK A01 T03460178  RH  039%=      5-min Rain = 0
KGDS 151935Z 18005KT 35/18 A2992 RMK A01 T03490179  RH  039%=      5-min Rain = 0
KGDS 151940Z 20005KT 36/18 A2992 RMK A01 T03550177  RH  037%=      5-min Rain = 0
KGDS 151945Z 25002KT 36/17 A2992 RMK A01 T03600174  RH  035%=      5-min Rain = 0
KGDS 151950Z 34004KT 36/17 A2992 RMK A01 T03640171  RH  034%=      5-min Rain = 0
KGDS 151955Z 32005KT 37/17 A2992 RMK A01 T03660174  RH  034%=      5-min Rain = 0
KGDS 152000Z 34004KT 37/17 A2992 RMK A01 T03650172  RH  034%=      5-min Rain = 0
KGDS 152005Z 03004KT 36/17 A2991 RMK A01 T03560166  RH  034%=      5-min Rain = 0
KGDS 152010Z 05001KT 35/16 A2991 RMK A01 T03510164  RH  035%=      5-min Rain = 0
KGDS 152015Z 07005KT 35/18 A2991 RMK A01 T03510177  RH  038%=      5-min Rain = 0
KGDS 152020Z 07005KT 35/18 A2991 RMK A01 T03540176  RH  037%=      5-min Rain = 0
KGDS 152025Z 16004G9KT 35/17 A299 RMK A01 T03510174  RH  037%=      5-min Rain = 0
KGDS 152030Z 15005KT 36/18 A299 RMK A01 T03570177  RH  036%=      5-min Rain = 0
KGDS 152035Z 16006KT 36/18 A299 RMK A01 T03630175  RH  035%=      5-min Rain = 0
KGDS 152040Z 15001KT 37/17 A299 RMK A01 T03660170  RH  033%=      5-min Rain = 0
KGDS 152045Z 09002KT 37/17 A2989 RMK A01 T03720171  RH  032%=      5-min Rain = 0
KGDS 152050Z 34002KT 37/17 A2989 RMK A01 T03690169  RH  032%=      5-min Rain = 0
KGDS 152055Z 33002KT 38/17 A2989 RMK A01 T03750169  RH  031%=      5-min Rain = 0
KGDS 152100Z 36004KT 37/17 A2989 RMK A01 T03730170  RH  032%=      5-min Rain = 0
KGDS 152105Z 01002KT 37/17 A2989 RMK A01 T03710171  RH  032%=      5-min Rain = 0
KGDS 152110Z 08002KT 37/17 A2989 RMK A01 T03740169  RH  032%=      5-min Rain = 0
KGDS 152115Z 11003G8KT 37/17 A2989 RMK A01 T03700173  RH  033%=      5-min Rain = 0
KGDS 152120Z 07008KT 37/18 A2989 RMK A01 T03700176  RH  034%=      5-min Rain = 0
KGDS 152125Z 02006KT 37/17 A2989 RMK A01 T03660172  RH  033%=      5-min Rain = 0
KGDS 152130Z 01006KT 37/17 A2988 RMK A01 T03700173  RH  033%=      5-min Rain = 0
KGDS 152135Z 01004KT 37/17 A2988 RMK A01 T03690169  RH  032%=      5-min Rain = 0
KGDS 152140Z 04006G12KT 37/17 A2988 RMK A01 T03700168  RH  032%=      5-min Rain = 0
KGDS 152145Z 05003KT 37/17 A2988 RMK A01 T03690169  RH  032%=      5-min Rain = 0
KGDS 152150Z 33004KT 37/17 A2988 RMK A01 T03740168  RH  031%=      5-min Rain = 0
KGDS 152155Z 32003KT 37/16 A2987 RMK A01 T03650164  RH  032%=      5-min Rain = 0
KGDS 152200Z 02003KT 36/16 A2987 RMK A01 T03590162  RH  033%=      5-min Rain = 0
KGDS 152205Z 09006G11KT 36/17 A2987 RMK A01 T03580166  RH  034%=      5-min Rain = 0
KGDS 152210Z 09007KT 36/17 A2987 RMK A01 T03580168  RH  034%=      5-min Rain = 0
KGDS 152215Z 09005KT 36/17 A2987 RMK A01 T03610166  RH  033%=      5-min Rain = 0
KGDS 152220Z 07004G9KT 36/16 A2987 RMK A01 T03570163  RH  033%=      5-min Rain = 0
KGDS 152225Z 07004KT 36/16 A2987 RMK A01 T03600164  RH  033%=      5-min Rain = 0
KGDS 152230Z 13003KT 37/17 A2987 RMK A01 T03700167  RH  032%=      5-min Rain = 0
KGDS 152235Z 21003KT 37/16 A2987 RMK A01 T03730163  RH  031%=      5-min Rain = 0
KGDS 152240Z 24004KT 37/16 A2986 RMK A01 T03730161  RH  030%=      5-min Rain = 0
KGDS 152245Z 30004KT 37/16 A2986 RMK A01 T03710162  RH  030%=      5-min Rain = 0
KGDS 152250Z 29005KT 37/16 A2986 RMK A01 T03710162  RH  031%=      5-min Rain = 0
KGDS 152255Z 29005KT 37/16 A2986 RMK A01 T03720162  RH  030%=      5-min Rain = 0
KGDS 152300Z 32004KT 37/16 A2986 RMK A01 T03730162  RH  030%=      5-min Rain = 0
KGDS 152305Z 01006KT 37/16 A2985 RMK A01 T03720162  RH  031%=      5-min Rain = 0
KGDS 152310Z 04003KT 37/16 A2985 RMK A01 T03680161  RH  031%=      5-min Rain = 0
KGDS 152315Z 08006G11KT 37/17 A2985 RMK A01 T03710167  RH  032%=      5-min Rain = 0
KGDS 152320Z 08007KT 37/17 A2985 RMK A01 T03690165  RH  032%=      5-min Rain = 0
KGDS 152325Z 06006KT 37/17 A2985 RMK A01 T03680165  RH  032%=      5-min Rain = 0
KGDS 152330Z 03006KT 37/16 A2985 RMK A01 T03680164  RH  031%=      5-min Rain = 0
KGDS 152335Z 04007KT 37/17 A2985 RMK A01 T03690165  RH  031%=      5-min Rain = 0
KGDS 152340Z 03005KT 37/16 A2985 RMK A01 T03680163  RH  031%=      5-min Rain = 0
KGDS 152345Z 05006KT 37/16 A2985 RMK A01 T03680163  RH  031%=      5-min Rain = 0
KGDS 152350Z 08006KT 37/17 A2985 RMK A01 T03670165  RH  032%=      5-min Rain = 0
KGDS 152355Z 08008KT 37/17 A2985 RMK A01 T03650166  RH  032%=      5-min Rain = 0
KGDS 160000Z 09007KT 37/17 A2985 RMK A01 T03660167  RH  032%=      5-min Rain = 0
KGDS 160005Z 10005KT 37/17 A2985 RMK A01 T03650167  RH  033%=      5-min Rain = 0
KGDS 160010Z 06007KT 36/17 A2985 RMK A01 T03640165  RH  032%=      5-min Rain = 0
KGDS 160015Z 06006KT 36/17 A2985 RMK A01 T03630166  RH  033%=      5-min Rain = 0
KGDS 160020Z 08007KT 37/17 A2985 RMK A01 T03650167  RH  033%=      5-min Rain = 0
KGDS 160025Z 08006KT 36/17 A2985 RMK A01 T03640166  RH  032%=      5-min Rain = 0
KGDS 160030Z 07007KT 36/17 A2985 RMK A01 T03640166  RH  033%=      5-min Rain = 0
KGDS 160035Z 10008KT 36/17 A2985 RMK A01 T03620166  RH  033%=      5-min Rain = 0
KGDS 160040Z 09007KT 36/17 A2985 RMK A01 T03610166  RH  033%=      5-min Rain = 0
KGDS 160045Z 09008KT 36/16 A2985 RMK A01 T03600163  RH  033%=      5-min Rain = 0
KGDS 160050Z 08008KT 36/17 A2985 RMK A01 T03590165  RH  033%=      5-min Rain = 0
KGDS 160055Z 09008KT 36/17 A2985 RMK A01 T03570166  RH  034%=      5-min Rain = 0
KGDS 160100Z 08009KT 36/17 A2985 RMK A01 T03550169  RH  035%=      5-min Rain = 0
KGDS 160105Z 08009KT 35/17 A2985 RMK A01 T03510171  RH  036%=      5-min Rain = 0
KGDS 160110Z 08008KT 35/17 A2985 RMK A01 T03500171  RH  036%=      5-min Rain = 0
KGDS 160115Z 08009KT 35/17 A2986 RMK A01 T03490171  RH  037%=      5-min Rain = 0
KGDS 160120Z 09009KT 35/17 A2986 RMK A01 T03460173  RH  038%=      5-min Rain = 0
KGDS 160125Z 10006KT 34/18 A2986 RMK A01 T03430175  RH  039%=      5-min Rain = 0
KGDS 160130Z 11007KT 34/17 A2986 RMK A01 T03400172  RH  039%=      5-min Rain = 0
KGDS 160135Z 12007KT 34/17 A2986 RMK A01 T03400170  RH  038%=      5-min Rain = 0
KGDS 160140Z 11007KT 34/17 A2986 RMK A01 T03370171  RH  039%=      5-min Rain = 0
KGDS 160145Z 11007KT 33/17 A2986 RMK A01 T03340171  RH  040%=      5-min Rain = 0
KGDS 160150Z 11007KT 33/17 A2986 RMK A01 T03310172  RH  041%=      5-min Rain = 0
KGDS 160155Z 11006KT 33/17 A2986 RMK A01 T03270173  RH  042%=      5-min Rain = 0
KGDS 160200Z 11006KT 32/17 A2986 RMK A01 T03210174  RH  044%=      5-min Rain = 0
KGDS 160205Z 10007KT 32/18 A2987 RMK A01 T03190175  RH  044%=      5-min Rain = 0
KGDS 160210Z 10007KT 32/18 A2987 RMK A01 T03170176  RH  045%=      5-min Rain = 0
KGDS 160215Z 11007KT 32/18 A2987 RMK A01 T03150177  RH  046%=      5-min Rain = 0
KGDS 160220Z 12007KT 31/18 A2987 RMK A01 T03140177  RH  046%=      5-min Rain = 0
KGDS 160225Z 11006KT 31/18 A2987 RMK A01 T03110178  RH  047%=      5-min Rain = 0
KGDS 160230Z 10005KT 31/18 A2988 RMK A01 T03060179  RH  049%=      5-min Rain = 0
KGDS 160235Z 11006KT 30/18 A2988 RMK A01 T03040179  RH  050%=      5-min Rain = 0
KGDS 160240Z 12006KT 31/18 A2988 RMK A01 T03050180  RH  050%=      5-min Rain = 0
KGDS 160245Z 12006KT 30/18 A2988 RMK A01 T03040181  RH  050%=      5-min Rain = 0
KGDS 160250Z 12006KT 30/18 A2988 RMK A01 T03010182  RH  051%=      5-min Rain = 0
KGDS 160255Z 12006KT 30/18 A2988 RMK A01 T02990183  RH  052%=      5-min Rain = 0
KGDS 160300Z 12006KT 30/18 A2989 RMK A01 T02970183  RH  053%=      5-min Rain = 0
KGDS 160305Z 11006KT 29/18 A2989 RMK A01 T02940183  RH  054%=      5-min Rain = 0
KGDS 160310Z 11006KT 29/18 A2989 RMK A01 T02900182  RH  055%=      5-min Rain = 0
KGDS 160315Z 11006KT 29/18 A2989 RMK A01 T02920182  RH  055%=      5-min Rain = 0
KGDS 160320Z 12006KT 29/18 A2989 RMK A01 T02920182  RH  054%=      5-min Rain = 0
KGDS 160325Z 12006KT 29/18 A299 RMK A01 T02900182  RH  055%=      5-min Rain = 0
KGDS 160330Z 12006KT 29/18 A299 RMK A01 T02880182  RH  056%=      5-min Rain = 0
KGDS 160335Z 13005KT 29/18 A299 RMK A01 T02880183  RH  056%=      5-min Rain = 0
KGDS 160340Z 13005KT 29/18 A299 RMK A01 T02860183  RH  056%=      5-min Rain = 0
KGDS 160345Z 12005KT 28/18 A299 RMK A01 T02830183  RH  057%=      5-min Rain = 0
KGDS 160350Z 12005KT 28/18 A2991 RMK A01 T02820183  RH  058%=      5-min Rain = 0
KGDS 160355Z 12005KT 28/18 A2991 RMK A01 T02810184  RH  059%=      5-min Rain = 0
KGDS 160400Z 12005KT 28/18 A299 RMK A01 T02790183  RH  059%=      5-min Rain = 0
KGDS 160405Z 12005KT 28/18 A299 RMK A01 T02770183  RH  060%=      5-min Rain = 0
KGDS 160410Z 13006KT 28/18 A299 RMK A01 T02760183  RH  060%=      5-min Rain = 0
KGDS 160415Z 13006KT 28/18 A2991 RMK A01 T02770183  RH  060%=      5-min Rain = 0
KGDS 160420Z 13006KT 28/18 A2991 RMK A01 T02770183  RH  059%=      5-min Rain = 0
KGDS 160425Z 13006KT 28/18 A2991 RMK A01 T02790183  RH  059%=      5-min Rain = 0
KGDS 160430Z 13006KT 28/18 A2991 RMK A01 T02810184  RH  059%=      5-min Rain = 0
KGDS 160435Z 14006KT 28/18 A2991 RMK A01 T02820184  RH  058%=      5-min Rain = 0
KGDS 160440Z 15007KT 28/19 A2991 RMK A01 T02820185  RH  059%=      5-min Rain = 0
KGDS 160445Z 15007KT 28/19 A2991 RMK A01 T02820185  RH  059%=      5-min Rain = 0
KGDS 160450Z 15007KT 28/19 A2991 RMK A01 T02820186  RH  059%=      5-min Rain = 0
KGDS 160455Z 15006KT 28/19 A2992 RMK A01 T02810187  RH  060%=      5-min Rain = 0

Page generated in 0.0086 seconds.